createdAt,value
2023-06-29T00:01:06.444Z,44.64
2023-06-29T00:03:34.807Z,44.35
2023-06-29T00:06:03.037Z,44.62
2023-06-29T00:08:36.930Z,44.46
2023-06-29T00:11:05.879Z,44.83
2023-06-29T00:13:34.185Z,44.67
2023-06-29T00:16:03.611Z,44.80
2023-06-29T00:18:31.711Z,44.46
2023-06-29T00:20:59.833Z,44.90
2023-06-29T00:23:28.392Z,45.08
2023-06-29T00:25:57.597Z,44.71
2023-06-29T00:28:25.901Z,45.13
2023-06-29T00:30:53.979Z,44.94
2023-06-29T00:33:23.374Z,44.56
2023-06-29T00:35:51.383Z,44.72
2023-06-29T00:38:22.163Z,44.41
2023-06-29T00:40:50.403Z,44.93
2023-06-29T00:43:19.109Z,44.88
2023-06-29T00:45:47.116Z,44.76
2023-06-29T00:48:15.101Z,44.82
2023-06-29T00:50:44.557Z,44.98
2023-06-29T00:53:12.468Z,44.74
2023-06-29T00:55:40.671Z,45.02
2023-06-29T00:58:08.713Z,45.19
2023-06-29T01:00:36.783Z,45.33
2023-06-29T01:03:04.980Z,45.52
2023-06-29T01:05:35.151Z,45.21
2023-06-29T01:08:06.175Z,45.01
2023-06-29T01:10:34.358Z,45.14
2023-06-29T01:13:03.019Z,45.35
2023-06-29T01:15:31.097Z,45.17
2023-06-29T01:18:00.780Z,45.62
2023-06-29T01:20:28.909Z,45.77
2023-06-29T01:22:58.471Z,45.58
2023-06-29T01:25:27.964Z,45.72
2023-06-29T01:27:56.038Z,45.68
2023-06-29T01:30:24.795Z,45.79
2023-06-29T01:32:52.815Z,45.61
2023-06-29T01:35:21.349Z,46.13
2023-06-29T01:37:54.795Z,46.37
2023-06-29T01:40:25.510Z,45.95
2023-06-29T01:42:54.929Z,46.04
2023-06-29T01:45:23.323Z,46.03
2023-06-29T01:47:51.350Z,46.13
2023-06-29T01:50:19.750Z,45.82
2023-06-29T01:52:51.360Z,45.71
2023-06-29T01:55:19.444Z,45.69
2023-06-29T01:57:48.645Z,45.82
2023-06-29T02:00:18.662Z,46.15
2023-06-29T02:02:59.842Z,46.12
2023-06-29T02:05:28.010Z,45.78
2023-06-29T02:07:56.274Z,46.00
2023-06-29T02:10:24.275Z,45.81
2023-06-29T02:12:52.290Z,45.78
2023-06-29T02:15:21.900Z,45.83
2023-06-29T02:17:50.138Z,45.58
2023-06-29T02:20:18.757Z,45.86
2023-06-29T02:22:46.885Z,45.93
2023-06-29T02:25:16.163Z,45.66
2023-06-29T02:27:44.260Z,46.03
2023-06-29T02:30:13.164Z,45.93
2023-06-29T02:32:43.562Z,45.60
2023-06-29T02:35:11.554Z,45.44
2023-06-29T02:37:39.830Z,45.79
2023-06-29T02:40:08.961Z,45.53
2023-06-29T02:42:37.869Z,45.49
2023-06-29T02:45:07.254Z,45.66
2023-06-29T02:47:35.654Z,45.93
2023-06-29T02:50:05.342Z,45.98
2023-06-29T02:52:34.097Z,45.94
2023-06-29T02:55:03.159Z,45.43
2023-06-29T02:57:31.170Z,45.45
2023-06-29T02:59:59.136Z,46.00
2023-06-29T03:02:27.079Z,45.86
2023-06-29T03:04:54.944Z,45.89
2023-06-29T03:07:24.191Z,45.67
2023-06-29T03:09:52.105Z,46.07
2023-06-29T03:12:19.885Z,45.79
2023-06-29T03:14:47.828Z,45.61
2023-06-29T03:17:15.742Z,45.78
2023-06-29T03:19:43.594Z,45.63
2023-06-29T03:22:11.457Z,46.16
2023-06-29T03:24:40.733Z,45.87
2023-06-29T03:27:08.582Z,45.85
2023-06-29T03:29:36.551Z,46.26
2023-06-29T03:32:04.527Z,45.83
2023-06-29T03:34:32.285Z,45.86
2023-06-29T03:37:00.134Z,45.77
2023-06-29T03:39:27.972Z,45.73
2023-06-29T03:41:57.687Z,45.63
2023-06-29T03:44:25.585Z,45.69
2023-06-29T03:46:53.900Z,45.71
2023-06-29T03:49:21.772Z,45.68
2023-06-29T03:51:49.567Z,45.31
2023-06-29T03:54:17.697Z,45.86
2023-06-29T03:56:45.611Z,45.82
2023-06-29T03:59:15.362Z,46.02
2023-06-29T04:01:43.285Z,45.58
2023-06-29T04:04:11.363Z,46.01
2023-06-29T04:06:39.494Z,45.84
2023-06-29T04:09:07.646Z,45.65
2023-06-29T04:11:35.507Z,46.08
2023-06-29T04:14:03.433Z,45.70
2023-06-29T04:16:32.657Z,46.03
2023-06-29T04:19:00.730Z,45.88
2023-06-29T04:21:28.733Z,45.85
2023-06-29T04:23:56.643Z,45.58
2023-06-29T04:26:29.005Z,45.88
2023-06-29T04:29:02.013Z,46.18
2023-06-29T04:31:31.116Z,45.98
2023-06-29T04:34:00.428Z,46.01
2023-06-29T04:36:28.320Z,46.17
2023-06-29T04:38:56.347Z,46.27
2023-06-29T04:41:31.992Z,46.21
2023-06-29T04:44:00.705Z,46.27
2023-06-29T04:46:29.326Z,46.25
2023-06-29T04:48:57.352Z,46.24
2023-06-29T04:51:27.483Z,46.20
2023-06-29T04:53:55.632Z,46.50
2023-06-29T04:56:23.795Z,46.44
2023-06-29T04:58:51.705Z,46.26
2023-06-29T05:01:19.808Z,45.87
2023-06-29T05:03:47.816Z,46.36
2023-06-29T05:06:16.061Z,46.25
2023-06-29T05:08:45.794Z,46.26
2023-06-29T05:11:13.765Z,46.01
2023-06-29T05:13:41.856Z,46.28
2023-06-29T05:16:09.940Z,46.35
2023-06-29T05:18:38.464Z,46.42
2023-06-29T05:21:06.762Z,46.03
2023-06-29T05:23:34.834Z,45.81
2023-06-29T05:26:06.817Z,45.84
2023-06-29T05:28:35.923Z,46.09
2023-06-29T05:31:04.343Z,45.82
2023-06-29T05:33:32.283Z,45.98
2023-06-29T05:36:00.324Z,46.13
2023-06-29T05:38:30.779Z,45.70
2023-06-29T05:41:01.848Z,45.30
2023-06-29T05:43:32.421Z,45.45
2023-06-29T05:46:01.128Z,45.26
2023-06-29T05:48:29.460Z,45.55
2023-06-29T05:50:58.042Z,45.27
2023-06-29T05:53:26.578Z,45.47
2023-06-29T05:55:55.251Z,45.44
2023-06-29T05:58:24.135Z,45.49
2023-06-29T06:00:54.315Z,45.22
2023-06-29T06:03:23.724Z,44.56
2023-06-29T06:05:52.257Z,44.78
2023-06-29T06:08:20.463Z,44.55
2023-06-29T06:10:49.327Z,44.81
2023-06-29T06:13:17.491Z,44.53
2023-06-29T06:15:45.740Z,44.02
2023-06-29T06:18:16.008Z,43.80
2023-06-29T06:20:45.738Z,43.67
2023-06-29T06:23:14.203Z,43.70
2023-06-29T06:26:03.418Z,42.96
2023-06-29T06:28:31.955Z,42.81
2023-06-29T06:31:00.092Z,43.02
2023-06-29T06:33:35.360Z,42.82
2023-06-29T06:36:04.704Z,42.75
2023-06-29T06:41:13.020Z,42.80
2023-06-29T06:43:41.831Z,42.84
2023-06-29T06:46:10.914Z,43.21
2023-06-29T06:48:40.844Z,43.23
2023-06-29T06:51:09.304Z,43.11
2023-06-29T06:53:37.715Z,42.92
2023-06-29T06:56:07.197Z,43.26
2023-06-29T06:58:36.389Z,43.34
2023-06-29T07:01:04.690Z,43.56
2023-06-29T07:03:32.871Z,43.53
2023-06-29T07:06:02.362Z,43.41
2023-06-29T07:08:31.641Z,42.88
2023-06-29T07:10:59.913Z,43.13
2023-06-29T07:13:28.054Z,42.31
2023-06-29T07:21:16.906Z,42.91
2023-06-29T07:24:24.732Z,42.46
2023-06-29T07:26:52.710Z,42.58
2023-06-29T07:29:44.039Z,42.69
2023-06-29T07:32:14.112Z,42.04
2023-06-29T07:35:11.888Z,41.94
2023-06-29T07:37:41.158Z,41.71
2023-06-29T07:40:30.325Z,41.72
2023-06-29T07:43:02.217Z,41.76
2023-06-29T07:45:31.398Z,41.68
2023-06-29T07:47:59.644Z,42.23
2023-06-29T07:50:27.642Z,41.96
2023-06-29T07:52:57.121Z,41.95
2023-06-29T07:55:25.617Z,41.82
2023-06-29T08:00:24.581Z,41.57
2023-06-29T08:02:54.441Z,41.69
2023-06-29T08:07:53.871Z,41.63
2023-06-29T08:10:23.272Z,41.75
2023-06-29T08:12:51.466Z,41.64
2023-06-29T08:15:19.569Z,41.59
2023-06-29T08:17:50.384Z,41.42
2023-06-29T08:20:18.636Z,41.63
2023-06-29T08:22:48.586Z,41.11
2023-06-29T08:25:16.522Z,40.77
2023-06-29T08:27:46.046Z,41.05
2023-06-29T08:30:14.970Z,40.49
2023-06-29T08:32:43.619Z,40.87
2023-06-29T08:35:11.652Z,39.89
2023-06-29T08:37:39.518Z,39.80
2023-06-29T08:40:08.850Z,39.94
2023-06-29T08:42:38.406Z,39.50
2023-06-29T08:45:09.186Z,39.72
2023-06-29T08:47:37.182Z,38.79
2023-06-29T08:50:06.325Z,39.20
2023-06-29T08:52:35.508Z,38.07
2023-06-29T08:55:03.574Z,38.15
2023-06-29T08:57:33.058Z,37.93
2023-06-29T09:00:01.257Z,37.73
2023-06-29T09:02:30.759Z,37.26
2023-06-29T09:04:59.729Z,37.42
2023-06-29T09:07:27.716Z,37.85
2023-06-29T09:09:56.381Z,38.21
2023-06-29T09:12:24.293Z,37.59
2023-06-29T09:14:52.072Z,36.93
2023-06-29T09:17:22.969Z,37.84
2023-06-29T09:19:56.791Z,38.22
2023-06-29T09:22:25.780Z,38.70
2023-06-29T09:25:03.385Z,37.34
2023-06-29T09:27:33.004Z,37.65
2023-06-29T09:30:01.550Z,37.04
2023-06-29T09:32:30.911Z,37.15
2023-06-29T09:35:07.068Z,37.34
2023-06-29T09:37:35.143Z,37.42
2023-06-29T09:40:06.872Z,37.64
2023-06-29T09:42:37.857Z,37.45
2023-06-29T09:45:08.820Z,37.51
2023-06-29T09:50:22.899Z,37.46
2023-06-29T09:52:55.155Z,36.44
2023-06-29T09:55:30.557Z,36.94
2023-06-29T09:57:59.057Z,36.31
2023-06-29T10:00:29.249Z,36.70
2023-06-29T10:11:12.456Z,37.05
2023-06-29T10:13:44.421Z,38.12
2023-06-29T10:16:15.373Z,37.75
2023-06-29T10:18:43.888Z,37.92
2023-06-29T10:21:11.670Z,37.75
2023-06-29T10:23:39.737Z,38.39
2023-06-29T10:26:07.704Z,38.31
2023-06-29T10:28:35.583Z,38.11
2023-06-29T10:31:05.635Z,37.87
2023-06-29T10:33:33.480Z,37.70
2023-06-29T10:36:02.910Z,37.35
2023-06-29T10:38:33.327Z,36.64
2023-06-29T10:41:01.129Z,36.70
2023-06-29T10:43:29.117Z,36.29
2023-06-29T10:45:57.000Z,36.03
2023-06-29T10:48:46.986Z,35.54
2023-06-29T10:51:15.002Z,34.58
2023-06-29T10:53:42.764Z,34.47
2023-06-29T10:56:10.730Z,33.98
2023-06-29T10:58:38.990Z,33.64
2023-06-29T11:01:06.788Z,34.35
2023-06-29T11:03:37.278Z,33.57
2023-06-29T11:06:05.366Z,32.43
2023-06-29T11:08:33.302Z,32.03
2023-06-29T11:11:13.878Z,32.44
2023-06-29T11:13:41.681Z,31.72
2023-06-29T11:16:09.458Z,31.47
2023-06-29T11:18:38.560Z,31.04
2023-06-29T11:21:06.374Z,30.68
2023-06-29T11:23:34.117Z,31.39
2023-06-29T11:26:02.654Z,30.93
2023-06-29T11:28:33.575Z,30.93
2023-06-29T11:31:01.372Z,31.47
2023-06-29T11:36:27.678Z,31.40
2023-06-29T11:41:24.746Z,32.02
2023-06-29T11:43:52.663Z,30.90
2023-06-29T11:46:20.507Z,31.15
2023-06-29T11:48:56.451Z,32.11
2023-06-29T11:51:27.021Z,32.41
2023-06-29T11:53:55.062Z,31.90
2023-06-29T11:56:26.218Z,32.40
2023-06-29T11:58:54.122Z,33.02
2023-06-29T12:01:22.695Z,32.18
2023-06-29T12:03:50.767Z,32.59
2023-06-29T12:06:18.589Z,32.91
2023-06-29T12:08:52.005Z,32.85
2023-06-29T12:11:22.939Z,32.94
2023-06-29T12:13:51.012Z,33.65
2023-06-29T12:18:50.298Z,34.28
2023-06-29T12:21:22.088Z,34.59
2023-06-29T12:23:52.129Z,34.86
2023-06-29T12:26:20.381Z,34.91
2023-06-29T12:28:48.367Z,35.37
2023-06-29T12:31:16.148Z,35.34
2023-06-29T12:33:46.643Z,35.66
2023-06-29T12:36:14.394Z,35.82
2023-06-29T12:38:42.338Z,36.23
2023-06-29T12:41:11.471Z,36.76
2023-06-29T12:43:39.339Z,36.69
2023-06-29T12:46:34.795Z,36.61
2023-06-29T12:49:02.572Z,36.92
2023-06-29T12:51:30.704Z,36.84
2023-06-29T12:53:58.511Z,36.71
2023-06-29T12:56:27.955Z,36.92
2023-06-29T12:58:55.918Z,37.13
2023-06-29T13:01:24.063Z,36.72
2023-06-29T13:03:52.063Z,36.06
2023-06-29T13:06:20.004Z,35.80
2023-06-29T13:08:56.775Z,36.39
2023-06-29T13:11:24.574Z,36.54
2023-06-29T13:13:53.663Z,37.06
2023-06-29T13:16:21.438Z,36.94
2023-06-29T13:18:49.316Z,37.79
2023-06-29T13:21:17.450Z,37.97
2023-06-29T13:23:45.270Z,38.49
2023-06-29T13:26:13.097Z,37.67
2023-06-29T13:28:40.938Z,37.92
2023-06-29T13:31:10.080Z,37.61
2023-06-29T13:33:37.818Z,37.70
2023-06-29T13:36:06.364Z,37.58
2023-06-29T13:38:34.203Z,37.26
2023-06-29T13:41:02.016Z,37.31
2023-06-29T13:43:29.743Z,37.39
2023-06-29T13:45:57.567Z,36.70
2023-06-29T13:48:26.758Z,36.58
2023-06-29T13:50:54.830Z,36.52
2023-06-29T13:53:22.895Z,36.91
2023-06-29T13:55:50.688Z,36.98
2023-06-29T13:58:18.419Z,37.41
2023-06-29T14:00:46.213Z,37.57
2023-06-29T14:03:14.385Z,38.02
2023-06-29T14:05:43.882Z,37.77
2023-06-29T14:08:13.006Z,37.67
2023-06-29T14:10:41.958Z,37.83
2023-06-29T14:13:09.752Z,38.15
2023-06-29T14:15:38.098Z,38.37
2023-06-29T14:18:05.919Z,38.80
2023-06-29T14:20:33.836Z,39.04
2023-06-29T14:23:03.106Z,39.39
2023-06-29T14:25:30.825Z,39.33
2023-06-29T14:27:59.921Z,39.83
2023-06-29T14:30:27.697Z,40.22
2023-06-29T14:32:55.502Z,40.97
2023-06-29T14:35:31.968Z,42.06
2023-06-29T14:38:13.524Z,42.09
2023-06-29T14:40:44.053Z,42.49
2023-06-29T14:43:12.393Z,41.99
2023-06-29T14:45:40.404Z,42.34
2023-06-29T14:48:08.479Z,41.99
2023-06-29T14:50:36.195Z,41.43
2023-06-29T14:53:03.993Z,41.33
2023-06-29T14:55:31.748Z,41.29
2023-06-29T14:58:01.589Z,41.16
2023-06-29T15:00:29.477Z,41.08
2023-06-29T15:02:57.378Z,40.79
2023-06-29T15:05:25.196Z,41.16
2023-06-29T15:07:53.952Z,40.64
2023-06-29T15:10:21.811Z,40.45
2023-06-29T15:12:49.612Z,40.60
2023-06-29T15:15:18.833Z,40.13
2023-06-29T15:17:46.656Z,40.57
2023-06-29T15:20:16.466Z,40.43
2023-06-29T15:22:45.666Z,40.82
2023-06-29T15:25:13.611Z,41.05
2023-06-29T15:27:42.047Z,40.57
2023-06-29T15:30:10.702Z,41.09
2023-06-29T15:32:39.934Z,40.67
2023-06-29T15:35:10.368Z,40.56
2023-06-29T15:37:38.254Z,40.78
2023-06-29T15:40:07.494Z,41.13
2023-06-29T15:42:35.387Z,40.72
2023-06-29T15:45:03.213Z,41.56
2023-06-29T15:47:31.008Z,41.13
2023-06-29T15:50:00.649Z,40.41
2023-06-29T15:52:28.823Z,40.73
2023-06-29T15:54:56.626Z,41.08
2023-06-29T15:57:24.490Z,41.23
2023-06-29T15:59:52.449Z,40.80
2023-06-29T16:02:20.317Z,41.31
2023-06-29T16:04:48.175Z,41.51
2023-06-29T16:07:17.896Z,41.81
2023-06-29T16:09:45.673Z,42.14
2023-06-29T16:12:13.437Z,41.62
2023-06-29T16:14:41.231Z,42.04
2023-06-29T16:17:09.195Z,41.89
2023-06-29T16:19:37.374Z,41.50
2023-06-29T16:22:07.766Z,42.20
2023-06-29T16:24:37.343Z,41.70
2023-06-29T16:27:05.721Z,41.37
2023-06-29T16:29:33.445Z,40.98
2023-06-29T16:32:05.202Z,40.72
2023-06-29T16:34:34.120Z,40.88
2023-06-29T16:37:02.241Z,40.30
2023-06-29T16:39:30.087Z,40.65
2023-06-29T16:41:59.403Z,40.39
2023-06-29T16:44:27.463Z,40.32
2023-06-29T16:46:55.633Z,39.41
2023-06-29T16:49:23.388Z,39.07
2023-06-29T16:51:51.094Z,39.57
2023-06-29T16:54:21.092Z,39.40
2023-06-29T16:56:49.371Z,39.34
2023-06-29T16:59:18.533Z,38.96
2023-06-29T17:01:46.299Z,39.72
2023-06-29T17:04:14.926Z,39.62
2023-06-29T17:06:42.728Z,39.48
2023-06-29T17:09:11.354Z,39.52
2023-06-29T17:11:39.078Z,39.49
2023-06-29T17:14:06.881Z,39.01
2023-06-29T17:16:36.049Z,38.98
2023-06-29T17:19:03.881Z,39.12
2023-06-29T17:21:32.057Z,39.65
2023-06-29T17:24:01.754Z,39.42
2023-06-29T17:26:29.647Z,39.35
2023-06-29T17:28:58.121Z,39.53
2023-06-29T17:31:26.460Z,39.78
2023-06-29T17:33:56.021Z,39.88
2023-06-29T17:36:23.807Z,39.65
2023-06-29T17:38:51.859Z,39.57
2023-06-29T17:43:54.211Z,38.98
2023-06-29T17:46:22.023Z,38.20
2023-06-29T17:48:49.768Z,38.67
2023-06-29T17:51:20.078Z,38.25
2023-06-29T17:53:48.337Z,37.94
2023-06-29T17:56:16.492Z,37.80
2023-06-29T17:58:44.644Z,37.39
2023-06-29T18:01:13.609Z,38.29
2023-06-29T18:03:41.484Z,38.04
2023-06-29T18:06:09.748Z,37.64
2023-06-29T18:08:38.819Z,37.87
2023-06-29T18:11:08.234Z,38.24
2023-06-29T18:13:36.021Z,38.78
2023-06-29T18:16:03.954Z,38.52
2023-06-29T18:18:33.063Z,39.03
2023-06-29T18:21:02.616Z,38.84
2023-06-29T18:23:31.431Z,38.99
2023-06-29T18:26:00.637Z,39.07
2023-06-29T18:28:28.389Z,39.59
2023-06-29T18:30:56.212Z,39.21
2023-06-29T18:33:24.020Z,40.22
2023-06-29T18:35:52.001Z,40.37
2023-06-29T18:38:19.835Z,40.29
2023-06-29T18:40:47.731Z,40.14
2023-06-29T18:43:16.999Z,40.15
2023-06-29T18:45:45.170Z,40.79
2023-06-29T18:48:13.317Z,40.89
2023-06-29T18:50:41.075Z,41.07
2023-06-29T18:53:09.160Z,41.17
2023-06-29T18:55:36.920Z,41.47
2023-06-29T18:58:04.754Z,41.71
2023-06-29T19:00:34.006Z,41.34
2023-06-29T19:03:01.880Z,41.97
2023-06-29T19:05:29.922Z,41.91
2023-06-29T19:07:57.754Z,41.74
2023-06-29T19:10:26.652Z,41.96
2023-06-29T19:12:54.512Z,42.11
2023-06-29T19:15:22.283Z,42.11
2023-06-29T19:17:51.538Z,42.63
2023-06-29T19:20:19.506Z,42.48
2023-06-29T19:22:47.531Z,42.68
2023-06-29T19:25:15.379Z,42.77
2023-06-29T19:27:43.186Z,42.97
2023-06-29T19:30:12.392Z,42.96
2023-06-29T19:32:40.239Z,43.18
2023-06-29T19:35:10.241Z,43.24
2023-06-29T19:37:38.032Z,43.64
2023-06-29T19:40:06.953Z,43.37
2023-06-29T19:42:34.671Z,43.44
2023-06-29T19:45:03.138Z,43.35
2023-06-29T19:47:30.891Z,43.58
2023-06-29T19:49:59.159Z,43.63
2023-06-29T19:52:28.342Z,43.76
2023-06-29T19:54:56.430Z,43.90
2023-06-29T19:57:24.276Z,43.94
2023-06-29T19:59:52.092Z,44.03
2023-06-29T20:02:19.912Z,44.11
2023-06-29T20:04:47.731Z,44.07
2023-06-29T20:07:15.736Z,44.36
2023-06-29T20:09:44.846Z,44.22
2023-06-29T20:12:12.679Z,44.24
2023-06-29T20:14:40.691Z,44.30
2023-06-29T20:17:08.764Z,44.44
2023-06-29T20:19:36.518Z,44.76
2023-06-29T20:22:04.620Z,45.11
2023-06-29T20:24:32.379Z,44.97
2023-06-29T20:27:01.629Z,45.03
2023-06-29T20:29:30.148Z,45.30
2023-06-29T20:31:57.955Z,45.47
2023-06-29T20:34:25.785Z,45.70
2023-06-29T20:36:53.549Z,45.84
2023-06-29T20:39:23.438Z,46.06
2023-06-29T20:41:51.314Z,46.28
2023-06-29T20:44:20.459Z,46.38
2023-06-29T20:46:49.234Z,46.25
2023-06-29T20:49:19.125Z,46.50
2023-06-29T20:51:47.251Z,46.70
2023-06-29T20:54:15.185Z,46.29
2023-06-29T20:56:42.904Z,46.28
2023-06-29T20:59:11.009Z,46.05
2023-06-29T21:01:40.694Z,46.27
2023-06-29T21:04:10.420Z,46.15
2023-06-29T21:06:38.436Z,46.25
2023-06-29T21:09:06.480Z,46.32
2023-06-29T21:11:35.435Z,46.42
2023-06-29T21:14:04.590Z,46.37
2023-06-29T21:16:32.582Z,46.51
2023-06-29T21:19:02.543Z,46.60
2023-06-29T21:21:30.571Z,46.56
2023-06-29T21:23:58.659Z,47.04
2023-06-29T21:26:27.510Z,46.98
2023-06-29T21:28:55.890Z,47.26
2023-06-29T21:31:23.802Z,47.55
2023-06-29T21:33:52.001Z,47.43
2023-06-29T21:36:21.463Z,47.85
2023-06-29T21:38:51.075Z,48.19
2023-06-29T21:41:21.188Z,48.52
2023-06-29T21:43:48.949Z,48.34
2023-06-29T21:46:16.916Z,48.44
2023-06-29T21:48:45.032Z,48.68
2023-06-29T21:51:12.857Z,48.21
2023-06-29T21:53:42.131Z,48.38
2023-06-29T21:56:24.788Z,48.68
2023-06-29T21:58:54.048Z,48.48
2023-06-29T22:01:22.494Z,49.09
2023-06-29T22:03:50.430Z,48.54
2023-06-29T22:06:18.349Z,49.25
2023-06-29T22:08:47.530Z,49.44
2023-06-29T22:11:15.279Z,49.63
2023-06-29T22:13:44.434Z,49.96
2023-06-29T22:16:12.319Z,49.58
2023-06-29T22:18:40.107Z,49.69
2023-06-29T22:21:08.182Z,50.16
2023-06-29T22:23:35.986Z,49.96
2023-06-29T22:26:05.156Z,50.58
2023-06-29T22:28:32.858Z,50.27
2023-06-29T22:31:00.677Z,50.32
2023-06-29T22:33:28.474Z,50.82
2023-06-29T22:35:56.376Z,50.57
2023-06-29T22:38:24.121Z,50.66
2023-06-29T22:40:51.869Z,50.54
2023-06-29T22:43:21.125Z,50.73
2023-06-29T22:45:49.352Z,51.14
2023-06-29T22:48:17.076Z,51.13
2023-06-29T22:50:44.841Z,51.13
2023-06-29T22:53:12.617Z,51.34
2023-06-29T22:55:40.355Z,51.20
2023-06-29T22:58:08.175Z,51.13
2023-06-29T23:00:38.841Z,51.28
2023-06-29T23:03:06.699Z,51.99
2023-06-29T23:05:34.444Z,52.08
2023-06-29T23:08:02.323Z,51.68
2023-06-29T23:10:30.049Z,52.30
2023-06-29T23:12:59.141Z,52.51
2023-06-29T23:15:27.293Z,52.47
2023-06-29T23:17:56.514Z,53.12
2023-06-29T23:20:28.345Z,53.34
2023-06-29T23:22:58.357Z,53.00
2023-06-29T23:25:27.004Z,53.17
2023-06-29T23:27:54.956Z,53.39
2023-06-29T23:30:22.891Z,53.25
2023-06-29T23:32:50.899Z,53.18
2023-06-29T23:35:21.644Z,53.19
2023-06-29T23:37:49.501Z,53.05
2023-06-29T23:40:17.453Z,53.38
2023-06-29T23:42:46.371Z,53.45
2023-06-29T23:45:14.134Z,53.03
2023-06-29T23:47:43.401Z,53.32
2023-06-29T23:50:12.255Z,52.94
2023-06-29T23:52:42.633Z,53.10
2023-06-29T23:55:12.688Z,52.88
2023-06-29T23:57:41.576Z,53.41
